KBMG/BMG METAR and TAF weather

Enter ICAO airport designator
Station Type Date Time Source
KBMG METAR 2019/12/13 00:53 UTC NOAA

KBMG 130053Z 14004KT 10SM CLR 03/M04 A3022 RMK AO2 SLP240 T00281039


Station Type Date Time Source
KBMG Decoded METAR 2019/12/13 00:53 UTC NOAA

MONROE COUNTY AIRPORT, IN, United States (KBMG) 39-09N 086-37W 257M
Dec 12, 2019 - 07:53 PM EST / 2019.12.13 0053 UTC
Wind: from the SE (140 degrees) at 5 MPH (4 KT):0
Visibility: 10 mile(s):0
Sky conditions: clear
Temperature: 37.0 F (2.8 C)
Dew Point: 25.0 F (-3.9 C)
Relative Humidity: 61%
Pressure (altimeter): 30.22 in. Hg (1023 hPa)
ob: KBMG 130053Z 14004KT 10SM CLR 03/M04 A3022 RMK AO2 SLP240 T00281039
cycle: 1

Station Type Date Time Source
KBMG TAF 2019/12/12 18:22 UTC NOAA

TAF KBMG 121720Z 1218/1318 16009KT P6SM BKN250
FM130100 15007KT P6SM SCT250
FM130900 19005KT P6SM FEW250
FM131300 17006KT P6SM SCT040 BKN150

Example: see airport list